createdAt,value
2022-08-19T00:01:11.370Z,87.07
2022-08-19T00:03:14.047Z,86.67
2022-08-19T00:05:17.416Z,86.56
2022-08-19T00:07:20.367Z,85.99
2022-08-19T00:09:24.794Z,86.28
2022-08-19T00:11:28.508Z,86.13
2022-08-19T00:13:31.198Z,86.67
2022-08-19T00:15:35.378Z,86.87
2022-08-19T00:17:38.056Z,87.39
2022-08-19T00:19:44.799Z,88.37
2022-08-19T00:21:47.492Z,88.21
2022-08-19T00:23:50.139Z,88.29
2022-08-19T00:25:52.982Z,88.90
2022-08-19T00:27:55.756Z,88.98
2022-08-19T00:29:59.821Z,88.94
2022-08-19T00:32:04.202Z,88.89
2022-08-19T00:34:07.305Z,88.62
2022-08-19T00:36:11.378Z,89.32
2022-08-19T00:38:14.043Z,90.28
2022-08-19T00:40:19.193Z,91.25
2022-08-19T00:42:23.659Z,92.08
2022-08-19T00:44:28.976Z,92.73
2022-08-19T00:46:33.525Z,92.73
2022-08-19T00:48:38.101Z,93.05
2022-08-19T00:50:52.048Z,93.29
2022-08-19T00:52:55.689Z,94.34
2022-08-19T00:54:59.882Z,96.32
2022-08-19T00:57:04.831Z,95.13
2022-08-19T00:59:09.851Z,95.49
2022-08-19T01:01:12.931Z,96.42
2022-08-19T01:03:20.244Z,96.45
2022-08-19T01:05:28.357Z,97.44
2022-08-19T01:07:35.974Z,98.51
2022-08-19T01:09:41.122Z,97.29
2022-08-19T01:11:46.385Z,96.59
2022-08-19T01:13:50.183Z,96.13
2022-08-19T01:16:00.589Z,96.76
2022-08-19T01:18:08.274Z,95.26
2022-08-19T01:20:14.180Z,94.62
2022-08-19T01:22:31.438Z,94.79
2022-08-19T01:24:37.100Z,94.31
2022-08-19T01:26:53.984Z,93.97
2022-08-19T01:29:01.878Z,93.65
2022-08-19T01:31:08.220Z,93.15
2022-08-19T01:33:11.060Z,94.36
2022-08-19T01:35:19.086Z,93.23
2022-08-19T01:37:24.970Z,93.07
2022-08-19T01:39:30.316Z,93.23
2022-08-19T01:41:34.572Z,93.86
2022-08-19T01:43:37.386Z,93.30
2022-08-19T01:46:00.457Z,92.95
2022-08-19T01:48:03.263Z,93.33
2022-08-19T01:50:08.150Z,92.34
2022-08-19T01:52:10.882Z,92.31
2022-08-19T01:54:23.389Z,92.98
2022-08-19T01:56:30.468Z,92.96
2022-08-19T01:58:42.571Z,92.45
2022-08-19T02:00:46.160Z,92.49
2022-08-19T02:02:48.881Z,93.23
2022-08-19T02:04:51.677Z,92.93
2022-08-19T02:06:54.369Z,93.23
2022-08-19T02:08:57.975Z,93.46
2022-08-19T02:11:00.667Z,94.00
2022-08-19T02:13:03.997Z,93.42
2022-08-19T02:15:09.502Z,94.22
2022-08-19T02:17:12.184Z,94.14
2022-08-19T02:19:15.819Z,94.27
2022-08-19T02:21:18.935Z,94.38
2022-08-19T02:23:21.707Z,94.88
2022-08-19T02:25:24.417Z,94.78
2022-08-19T02:27:27.508Z,94.39
2022-08-19T02:29:30.238Z,95.42
2022-08-19T02:31:34.319Z,95.39
2022-08-19T02:33:36.971Z,96.70
2022-08-19T02:35:43.213Z,95.63
2022-08-19T02:38:03.994Z,95.83
2022-08-19T02:40:12.504Z,96.77
2022-08-19T02:42:15.506Z,96.58
2022-08-19T02:44:29.662Z,96.43
2022-08-19T02:46:35.387Z,97.49
2022-08-19T02:48:38.091Z,97.85
2022-08-19T02:50:41.561Z,98.27
2022-08-19T02:52:56.530Z,99.89
2022-08-19T02:54:59.249Z,100.00
2022-08-19T02:57:02.014Z,100.00
2022-08-19T02:59:12.784Z,100.00
2022-08-19T03:01:23.542Z,100.00
2022-08-19T03:03:28.054Z,100.00
2022-08-19T03:05:47.902Z,100.00
2022-08-19T03:07:53.950Z,100.00
2022-08-19T03:09:56.596Z,100.00
2022-08-19T03:11:59.329Z,100.00
2022-08-19T03:14:04.572Z,100.00
2022-08-19T03:16:07.778Z,100.00
2022-08-19T03:18:10.561Z,100.00
2022-08-19T03:20:16.991Z,100.00
2022-08-19T03:22:19.635Z,100.00
2022-08-19T03:24:23.504Z,100.00
2022-08-19T03:26:26.321Z,100.00
2022-08-19T03:28:29.353Z,100.00
2022-08-19T03:30:32.515Z,100.00
2022-08-19T03:32:36.312Z,100.00
2022-08-19T03:34:48.046Z,100.00
2022-08-19T03:36:52.157Z,100.00
2022-08-19T03:38:59.799Z,100.00
2022-08-19T03:41:07.263Z,100.00
2022-08-19T03:43:09.981Z,100.00
2022-08-19T03:45:12.662Z,100.00
2022-08-19T03:47:17.463Z,100.00
2022-08-19T03:49:21.571Z,100.00
2022-08-19T03:51:33.688Z,100.00
2022-08-19T03:53:37.884Z,100.00
2022-08-19T03:55:42.588Z,100.00
2022-08-19T03:57:46.038Z,100.00
2022-08-19T03:59:48.768Z,100.00
2022-08-19T04:01:51.425Z,100.00
2022-08-19T04:03:54.959Z,100.00
2022-08-19T04:05:58.433Z,100.00
2022-08-19T04:08:01.516Z,100.00
2022-08-19T04:10:06.995Z,100.00
2022-08-19T04:12:13.385Z,100.00
2022-08-19T04:14:19.529Z,100.00
2022-08-19T04:16:23.734Z,100.00
2022-08-19T04:18:39.910Z,100.00
2022-08-19T04:20:47.657Z,100.00
2022-08-19T04:22:50.476Z,100.00
2022-08-19T04:24:53.146Z,100.00
2022-08-19T04:26:57.220Z,100.00
2022-08-19T04:29:00.227Z,100.00
2022-08-19T04:31:02.918Z,100.00
2022-08-19T04:33:05.583Z,100.00
2022-08-19T04:35:17.705Z,100.00
2022-08-19T04:37:21.994Z,100.00
2022-08-19T04:39:48.079Z,100.00
2022-08-19T04:42:08.843Z,100.00
2022-08-19T04:44:14.732Z,100.00
2022-08-19T04:46:28.540Z,100.00
2022-08-19T04:48:49.562Z,100.00
2022-08-19T04:50:53.335Z,100.00
2022-08-19T04:52:57.013Z,100.00
2022-08-19T04:54:59.859Z,100.00
2022-08-19T04:57:02.503Z,100.00
2022-08-19T04:59:05.621Z,100.00
2022-08-19T05:01:11.239Z,100.00
2022-08-19T05:03:14.031Z,100.00
2022-08-19T05:05:16.884Z,100.00
2022-08-19T05:07:19.799Z,100.00
2022-08-19T05:09:22.720Z,100.00
2022-08-19T05:11:29.331Z,100.00
2022-08-19T05:13:32.350Z,100.00
2022-08-19T05:15:35.698Z,100.00
2022-08-19T05:17:59.802Z,100.00
2022-08-19T05:20:20.524Z,100.00
2022-08-19T05:22:36.439Z,100.00
2022-08-19T05:24:56.422Z,100.00
2022-08-19T05:27:03.518Z,100.00
2022-08-19T05:29:08.296Z,100.00
2022-08-19T05:31:13.562Z,100.00
2022-08-19T05:33:17.560Z,100.00
2022-08-19T05:35:20.356Z,100.00
2022-08-19T05:37:23.454Z,100.00
2022-08-19T05:39:29.042Z,100.00
2022-08-19T05:41:32.044Z,100.00
2022-08-19T05:43:34.760Z,100.00
2022-08-19T05:45:40.824Z,100.00
2022-08-19T05:47:43.529Z,100.00
2022-08-19T05:49:47.610Z,100.00
2022-08-19T05:51:51.208Z,100.00
2022-08-19T05:53:53.953Z,100.00
2022-08-19T05:55:56.591Z,100.00
2022-08-19T05:58:02.652Z,100.00
2022-08-19T06:00:10.339Z,100.00
2022-08-19T06:02:14.379Z,100.00
2022-08-19T06:04:17.892Z,100.00
2022-08-19T06:06:22.817Z,100.00
2022-08-19T06:08:33.774Z,100.00
2022-08-19T06:10:37.880Z,100.00
2022-08-19T06:12:40.591Z,100.00
2022-08-19T06:14:43.439Z,100.00
2022-08-19T06:16:47.199Z,100.00
2022-08-19T06:18:52.369Z,100.00
2022-08-19T06:20:56.256Z,100.00
2022-08-19T06:23:00.539Z,100.00
2022-08-19T06:25:04.951Z,100.00
2022-08-19T06:27:07.653Z,100.00
2022-08-19T06:29:12.300Z,100.00
2022-08-19T06:31:29.573Z,100.00
2022-08-19T06:33:32.363Z,100.00
2022-08-19T06:35:40.941Z,100.00
2022-08-19T06:37:43.937Z,100.00
2022-08-19T06:39:48.233Z,100.00
2022-08-19T06:41:55.567Z,100.00
2022-08-19T06:44:01.025Z,100.00
2022-08-19T06:46:04.615Z,100.00
2022-08-19T06:48:09.074Z,100.00
2022-08-19T06:50:15.132Z,100.00
2022-08-19T06:52:19.521Z,100.00
2022-08-19T06:54:22.451Z,100.00
2022-08-19T06:56:35.499Z,100.00
2022-08-19T06:58:39.087Z,100.00
2022-08-19T07:00:42.092Z,100.00
2022-08-19T07:02:49.790Z,100.00
2022-08-19T07:05:02.209Z,100.00
2022-08-19T07:07:19.684Z,100.00
2022-08-19T07:09:23.910Z,100.00
2022-08-19T07:11:28.364Z,100.00
2022-08-19T07:13:37.295Z,100.00
2022-08-19T07:15:40.022Z,100.00
2022-08-19T07:17:44.218Z,100.00
2022-08-19T07:19:47.436Z,100.00
2022-08-19T07:21:53.686Z,100.00
2022-08-19T07:23:57.579Z,100.00
2022-08-19T07:26:00.713Z,100.00
2022-08-19T07:28:05.260Z,100.00
2022-08-19T07:30:11.763Z,100.00
2022-08-19T07:32:15.066Z,100.00
2022-08-19T07:34:18.504Z,100.00
2022-08-19T07:36:24.248Z,100.00
2022-08-19T07:38:28.776Z,100.00
2022-08-19T07:40:32.399Z,100.00
2022-08-19T07:42:35.142Z,100.00
2022-08-19T07:46:47.262Z,100.00
2022-08-19T07:48:53.187Z,100.00
2022-08-19T07:50:57.881Z,100.00
2022-08-19T07:53:00.598Z,100.00
2022-08-19T07:55:04.854Z,100.00
2022-08-19T07:57:07.997Z,100.00
2022-08-19T07:59:10.900Z,100.00
2022-08-19T08:01:17.986Z,100.00
2022-08-19T08:03:44.444Z,100.00
2022-08-19T08:06:05.332Z,100.00
2022-08-19T08:08:37.205Z,100.00
2022-08-19T08:10:48.716Z,100.00
2022-08-19T08:13:09.446Z,100.00
2022-08-19T08:15:19.641Z,100.00
2022-08-19T08:17:31.067Z,100.00
2022-08-19T08:19:51.478Z,100.00
2022-08-19T08:21:55.836Z,100.00
2022-08-19T08:23:57.609Z,100.00
2022-08-19T08:26:01.215Z,100.00
2022-08-19T08:28:05.981Z,100.00
2022-08-19T08:30:10.808Z,100.00
2022-08-19T08:32:14.246Z,100.00
2022-08-19T08:34:19.112Z,100.00
2022-08-19T08:36:21.850Z,100.00
2022-08-19T08:38:24.771Z,100.00
2022-08-19T08:40:35.416Z,100.00
2022-08-19T08:42:48.537Z,100.00
2022-08-19T08:47:13.392Z,100.00
2022-08-19T08:49:28.879Z,100.00
2022-08-19T08:51:35.817Z,100.00
2022-08-19T08:53:41.981Z,100.00
2022-08-19T08:55:46.424Z,100.00
2022-08-19T08:57:57.744Z,100.00
2022-08-19T09:00:06.628Z,100.00
2022-08-19T09:02:18.269Z,100.00
2022-08-19T09:04:23.484Z,100.00
2022-08-19T09:06:34.063Z,100.00
2022-08-19T09:08:46.719Z,100.00
2022-08-19T09:10:55.236Z,100.00
2022-08-19T09:13:12.633Z,100.00
2022-08-19T09:15:18.357Z,100.00
2022-08-19T09:17:29.030Z,100.00
2022-08-19T09:19:33.125Z,100.00
2022-08-19T09:21:36.344Z,100.00
2022-08-19T09:23:41.418Z,100.00
2022-08-19T09:25:44.173Z,100.00
2022-08-19T09:27:47.647Z,100.00
2022-08-19T09:29:50.440Z,100.00
2022-08-19T09:31:53.342Z,100.00
2022-08-19T09:33:58.138Z,100.00
2022-08-19T09:36:08.742Z,100.00
2022-08-19T09:38:11.607Z,100.00
2022-08-19T09:40:15.399Z,100.00
2022-08-19T09:42:29.925Z,100.00
2022-08-19T09:44:34.697Z,100.00
2022-08-19T09:46:37.394Z,100.00
2022-08-19T09:48:40.750Z,100.00
2022-08-19T09:50:51.966Z,100.00
2022-08-19T09:52:57.979Z,100.00
2022-08-19T09:55:01.032Z,100.00
2022-08-19T09:57:10.151Z,100.00
2022-08-19T09:59:13.403Z,100.00
2022-08-19T10:01:21.144Z,100.00
2022-08-19T10:03:25.397Z,100.00
2022-08-19T10:05:48.641Z,100.00
2022-08-19T10:07:52.366Z,100.00
2022-08-19T10:09:56.397Z,100.00
2022-08-19T10:12:02.674Z,100.00
2022-08-19T10:14:07.531Z,100.00
2022-08-19T10:16:13.630Z,100.00
2022-08-19T10:18:18.669Z,100.00
2022-08-19T10:20:22.777Z,100.00
2022-08-19T10:22:26.237Z,100.00
2022-08-19T10:24:29.524Z,100.00
2022-08-19T10:26:37.168Z,100.00
2022-08-19T10:28:40.379Z,100.00
2022-08-19T10:30:45.498Z,100.00
2022-08-19T10:32:48.525Z,100.00
2022-08-19T10:34:52.828Z,100.00
2022-08-19T10:37:02.253Z,100.00
2022-08-19T10:39:08.295Z,100.00
2022-08-19T10:41:14.843Z,100.00
2022-08-19T10:43:18.969Z,100.00
2022-08-19T10:45:23.125Z,100.00
2022-08-19T10:47:31.507Z,100.00
2022-08-19T10:49:54.728Z,100.00
2022-08-19T10:52:18.775Z,100.00
2022-08-19T10:54:31.078Z,100.00
2022-08-19T10:56:53.901Z,100.00
2022-08-19T10:58:58.874Z,100.00
2022-08-19T11:01:01.699Z,100.00
2022-08-19T11:03:04.537Z,100.00
2022-08-19T11:05:13.572Z,100.00
2022-08-19T11:07:16.407Z,100.00
2022-08-19T11:09:21.684Z,100.00
2022-08-19T11:11:24.829Z,100.00
2022-08-19T11:13:27.943Z,100.00
2022-08-19T11:15:34.375Z,100.00
2022-08-19T11:17:41.402Z,100.00
2022-08-19T11:19:44.208Z,100.00
2022-08-19T11:21:49.579Z,100.00
2022-08-19T11:23:58.782Z,100.00
2022-08-19T11:26:03.706Z,100.00
2022-08-19T11:28:07.001Z,100.00
2022-08-19T11:30:13.195Z,100.00
2022-08-19T11:32:17.820Z,100.00
2022-08-19T11:34:24.741Z,100.00
2022-08-19T11:36:29.328Z,100.00
2022-08-19T11:38:32.815Z,100.00
2022-08-19T11:40:35.505Z,100.00
2022-08-19T11:42:55.632Z,100.00
2022-08-19T11:44:58.501Z,100.00
2022-08-19T11:47:09.147Z,100.00
2022-08-19T11:49:14.365Z,100.00
2022-08-19T11:51:22.420Z,100.00
2022-08-19T11:53:25.946Z,100.00
2022-08-19T11:55:28.714Z,100.00
2022-08-19T11:57:31.414Z,100.00
2022-08-19T11:59:34.134Z,100.00
2022-08-19T12:01:36.867Z,100.00
2022-08-19T12:03:40.355Z,100.00
2022-08-19T12:05:44.536Z,100.00
2022-08-19T12:07:47.289Z,100.00
2022-08-19T12:09:50.144Z,100.00
2022-08-19T12:11:53.052Z,100.00
2022-08-19T12:13:55.947Z,100.00
2022-08-19T12:15:59.178Z,100.00
2022-08-19T12:18:01.941Z,100.00
2022-08-19T12:20:07.587Z,100.00
2022-08-19T12:22:11.791Z,100.00
2022-08-19T12:24:14.911Z,100.00
2022-08-19T12:26:19.411Z,100.00
2022-08-19T12:28:23.835Z,100.00
2022-08-19T12:30:27.978Z,100.00
2022-08-19T12:32:30.941Z,100.00
2022-08-19T12:34:34.861Z,100.00
2022-08-19T12:36:37.646Z,100.00
2022-08-19T12:38:42.767Z,100.00
2022-08-19T12:40:48.468Z,100.00
2022-08-19T12:42:52.076Z,100.00
2022-08-19T12:44:56.146Z,100.00
2022-08-19T12:46:59.829Z,100.00
2022-08-19T12:49:06.226Z,100.00
2022-08-19T12:51:28.022Z,100.00
2022-08-19T12:53:31.139Z,100.00
2022-08-19T12:55:35.768Z,100.00
2022-08-19T12:57:41.220Z,100.00
2022-08-19T12:59:44.694Z,100.00
2022-08-19T13:01:48.011Z,100.00
2022-08-19T13:03:51.100Z,100.00
2022-08-19T13:05:54.097Z,100.00
2022-08-19T13:08:01.794Z,100.00
2022-08-19T13:10:08.026Z,100.00
2022-08-19T13:12:14.065Z,100.00
2022-08-19T13:14:16.996Z,100.00
2022-08-19T13:16:23.524Z,100.00
2022-08-19T13:18:27.507Z,100.00
2022-08-19T13:20:31.019Z,100.00
2022-08-19T13:22:34.523Z,100.00
2022-08-19T13:24:42.920Z,100.00
2022-08-19T13:26:52.155Z,100.00
2022-08-19T13:29:15.271Z,100.00
2022-08-19T13:31:37.125Z,100.00
2022-08-19T13:33:40.016Z,100.00
2022-08-19T13:35:44.720Z,100.00
2022-08-19T13:37:47.674Z,100.00
2022-08-19T13:39:50.701Z,100.00
2022-08-19T13:41:53.636Z,100.00
2022-08-19T13:43:57.973Z,100.00
2022-08-19T13:46:01.505Z,100.00
2022-08-19T13:48:08.094Z,100.00
2022-08-19T13:50:12.823Z,100.00
2022-08-19T13:52:15.696Z,100.00
2022-08-19T13:54:19.185Z,100.00
2022-08-19T13:56:26.014Z,100.00
2022-08-19T13:58:32.591Z,100.00
2022-08-19T14:00:39.725Z,100.00
2022-08-19T14:02:44.186Z,100.00
2022-08-19T14:04:48.305Z,100.00
2022-08-19T14:06:54.486Z,100.00
2022-08-19T14:08:57.730Z,100.00
2022-08-19T14:11:06.381Z,100.00
2022-08-19T14:13:10.042Z,100.00
2022-08-19T14:15:14.103Z,100.00
2022-08-19T14:17:19.950Z,100.00
2022-08-19T14:19:24.447Z,100.00
2022-08-19T14:21:37.523Z,100.00
2022-08-19T14:23:43.899Z,100.00
2022-08-19T14:25:47.420Z,100.00
2022-08-19T14:27:51.017Z,100.00
2022-08-19T14:29:56.086Z,100.00
2022-08-19T14:31:59.944Z,100.00
2022-08-19T14:34:04.865Z,100.00
2022-08-19T14:36:16.781Z,100.00
2022-08-19T14:38:28.242Z,100.00
2022-08-19T14:40:35.652Z,100.00
2022-08-19T14:42:39.109Z,100.00
2022-08-19T14:44:42.241Z,100.00
2022-08-19T14:46:50.497Z,100.00
2022-08-19T14:48:55.425Z,100.00
2022-08-19T14:51:00.567Z,100.00
2022-08-19T14:53:08.128Z,100.00
2022-08-19T14:55:19.245Z,100.00
2022-08-19T14:57:24.541Z,100.00
2022-08-19T14:59:27.553Z,100.00
2022-08-19T15:01:30.544Z,100.00
2022-08-19T15:03:34.548Z,100.00
2022-08-19T15:05:37.773Z,100.00
2022-08-19T15:07:42.876Z,100.00
2022-08-19T15:09:46.604Z,100.00
2022-08-19T15:11:52.486Z,100.00
2022-08-19T15:13:57.069Z,100.00
2022-08-19T15:15:59.934Z,100.00
2022-08-19T15:18:03.543Z,100.00
2022-08-19T15:20:07.603Z,100.00
2022-08-19T15:22:10.510Z,100.00
2022-08-19T15:24:14.630Z,100.00
2022-08-19T15:26:18.715Z,100.00
2022-08-19T15:28:21.621Z,100.00
2022-08-19T15:30:28.086Z,100.00
2022-08-19T15:32:32.542Z,100.00
2022-08-19T15:34:35.541Z,100.00
2022-08-19T15:36:42.061Z,100.00
2022-08-19T15:38:47.231Z,100.00
2022-08-19T15:40:52.874Z,100.00
2022-08-19T15:42:55.715Z,100.00
2022-08-19T15:45:00.787Z,100.00
2022-08-19T15:47:04.773Z,100.00
2022-08-19T15:49:08.172Z,100.00
2022-08-19T15:51:10.855Z,100.00
2022-08-19T15:53:13.889Z,100.00
2022-08-19T15:55:33.820Z,100.00
2022-08-19T15:57:56.168Z,100.00
2022-08-19T16:00:16.415Z,100.00
2022-08-19T16:02:39.190Z,100.00
2022-08-19T16:04:59.599Z,100.00
2022-08-19T16:07:03.678Z,100.00
2022-08-19T16:09:06.452Z,100.00
2022-08-19T16:11:09.147Z,100.00
2022-08-19T16:13:13.194Z,100.00
2022-08-19T16:15:15.935Z,100.00
2022-08-19T16:17:18.600Z,100.00
2022-08-19T16:19:21.311Z,100.00
2022-08-19T16:21:26.105Z,100.00
2022-08-19T16:23:29.199Z,100.00
2022-08-19T16:25:32.047Z,100.00
2022-08-19T16:27:35.164Z,100.00
2022-08-19T16:29:39.685Z,100.00
2022-08-19T16:31:44.394Z,100.00
2022-08-19T16:33:47.058Z,100.00
2022-08-19T16:35:56.093Z,100.00
2022-08-19T16:38:03.659Z,100.00
2022-08-19T16:40:09.390Z,100.00
2022-08-19T16:42:13.929Z,100.00
2022-08-19T16:44:17.733Z,100.00
2022-08-19T16:46:22.783Z,100.00
2022-08-19T16:48:29.754Z,100.00
2022-08-19T16:50:48.703Z,100.00
2022-08-19T16:52:51.723Z,100.00
2022-08-19T16:54:54.928Z,100.00
2022-08-19T16:56:57.573Z,100.00
2022-08-19T16:59:00.593Z,100.00
2022-08-19T17:01:07.897Z,100.00
2022-08-19T17:03:15.073Z,100.00
2022-08-19T17:05:18.826Z,100.00
2022-08-19T17:07:21.532Z,100.00
2022-08-19T17:09:25.828Z,100.00
2022-08-19T17:11:31.590Z,100.00
2022-08-19T17:13:34.720Z,100.00
2022-08-19T17:15:37.377Z,100.00
2022-08-19T17:17:40.030Z,100.00
2022-08-19T17:19:44.553Z,100.00
2022-08-19T17:21:47.212Z,100.00
2022-08-19T17:23:50.441Z,100.00
2022-08-19T17:25:53.384Z,100.00
2022-08-19T17:27:56.485Z,100.00
2022-08-19T17:30:00.181Z,100.00
2022-08-19T17:32:03.305Z,100.00
2022-08-19T17:34:06.953Z,100.00
2022-08-19T17:36:13.646Z,100.00
2022-08-19T17:38:19.042Z,100.00
2022-08-19T17:40:23.888Z,100.00
2022-08-19T17:42:26.889Z,100.00
2022-08-19T17:44:29.510Z,100.00
2022-08-19T17:46:32.317Z,100.00
2022-08-19T17:48:38.741Z,100.00
2022-08-19T17:50:41.645Z,100.00
2022-08-19T17:52:45.809Z,100.00
2022-08-19T17:54:48.540Z,100.00
2022-08-19T17:56:51.448Z,100.00
2022-08-19T17:59:00.397Z,100.00
2022-08-19T18:01:05.131Z,100.00
2022-08-19T18:03:08.495Z,100.00
2022-08-19T18:05:15.460Z,100.00
2022-08-19T18:07:21.514Z,100.00
2022-08-19T18:09:27.856Z,100.00
2022-08-19T18:11:30.636Z,100.00
2022-08-19T18:13:33.398Z,100.00
2022-08-19T18:15:36.156Z,100.00
2022-08-19T18:17:42.016Z,100.00
2022-08-19T18:19:46.052Z,100.00
2022-08-19T18:21:48.867Z,100.00
2022-08-19T18:23:51.544Z,100.00
2022-08-19T18:26:06.260Z,100.00
2022-08-19T18:28:08.930Z,100.00
2022-08-19T18:30:13.428Z,100.00
2022-08-19T18:32:18.150Z,100.00
2022-08-19T18:34:26.988Z,100.00
2022-08-19T18:36:52.483Z,100.00
2022-08-19T18:39:09.913Z,100.00
2022-08-19T18:41:33.919Z,100.00
2022-08-19T18:43:54.372Z,100.00
2022-08-19T18:46:14.776Z,100.00
2022-08-19T18:48:35.071Z,100.00
2022-08-19T18:50:40.405Z,100.00
2022-08-19T18:52:43.115Z,100.00
2022-08-19T18:54:47.135Z,100.00
2022-08-19T18:56:55.555Z,100.00
2022-08-19T18:58:58.741Z,100.00
2022-08-19T19:01:10.520Z,100.00
2022-08-19T19:03:13.242Z,100.00
2022-08-19T19:05:16.254Z,100.00
2022-08-19T19:07:19.972Z,100.00
2022-08-19T19:09:25.041Z,100.00
2022-08-19T19:11:29.959Z,100.00
2022-08-19T19:13:35.662Z,100.00
2022-08-19T19:15:39.511Z,100.00
2022-08-19T19:17:42.144Z,100.00
2022-08-19T19:19:45.624Z,100.00
2022-08-19T19:21:49.924Z,100.00
2022-08-19T19:23:53.942Z,100.00
2022-08-19T19:25:56.632Z,100.00
2022-08-19T19:27:59.421Z,100.00
2022-08-19T19:30:03.613Z,100.00
2022-08-19T19:32:08.244Z,100.00
2022-08-19T19:34:28.843Z,100.00
2022-08-19T19:36:32.683Z,100.00
2022-08-19T19:38:35.414Z,100.00
2022-08-19T19:40:38.112Z,100.00
2022-08-19T19:42:40.772Z,100.00
2022-08-19T19:44:48.037Z,100.00
2022-08-19T19:46:55.699Z,100.00
2022-08-19T19:49:00.327Z,100.00
2022-08-19T19:51:04.910Z,100.00
2022-08-19T19:53:07.650Z,100.00
2022-08-19T19:55:11.720Z,100.00
2022-08-19T19:57:15.455Z,100.00
2022-08-19T19:59:18.725Z,100.00
2022-08-19T20:01:24.698Z,100.00
2022-08-19T20:03:30.839Z,100.00
2022-08-19T20:05:33.555Z,100.00
2022-08-19T20:07:54.173Z,100.00
2022-08-19T20:10:00.195Z,100.00
2022-08-19T20:12:03.124Z,100.00
2022-08-19T20:14:11.637Z,100.00
2022-08-19T20:16:15.215Z,100.00
2022-08-19T20:18:18.968Z,100.00
2022-08-19T20:20:23.659Z,100.00
2022-08-19T20:22:26.571Z,100.00
2022-08-19T20:24:32.360Z,100.00
2022-08-19T20:26:35.207Z,100.00
2022-08-19T20:28:38.067Z,100.00
2022-08-19T20:30:48.104Z,100.00
2022-08-19T20:32:51.588Z,100.00
2022-08-19T20:34:54.357Z,100.00
2022-08-19T20:36:58.455Z,100.00
2022-08-19T20:39:01.899Z,100.00
2022-08-19T20:41:04.942Z,100.00
2022-08-19T20:43:09.868Z,100.00
2022-08-19T20:45:29.411Z,100.00
2022-08-19T20:47:36.026Z,100.00
2022-08-19T20:49:39.125Z,100.00
2022-08-19T20:51:41.922Z,100.00
2022-08-19T20:53:46.037Z,100.00
2022-08-19T20:55:50.067Z,100.00
2022-08-19T20:57:52.761Z,100.00
2022-08-19T20:59:55.451Z,100.00
2022-08-19T21:01:58.209Z,100.00
2022-08-19T21:04:00.846Z,100.00
2022-08-19T21:06:04.681Z,100.00
2022-08-19T21:08:09.068Z,100.00
2022-08-19T21:10:13.150Z,100.00
2022-08-19T21:12:15.879Z,100.00
2022-08-19T21:14:19.072Z,100.00
2022-08-19T21:16:22.005Z,100.00
2022-08-19T21:18:26.880Z,100.00
2022-08-19T21:20:29.835Z,100.00
2022-08-19T21:22:32.544Z,100.00
2022-08-19T21:24:35.242Z,100.00
2022-08-19T21:26:39.397Z,100.00
2022-08-19T21:28:42.098Z,100.00
2022-08-19T21:30:44.827Z,100.00
2022-08-19T21:32:52.279Z,100.00
2022-08-19T21:34:55.408Z,100.00
2022-08-19T21:36:58.056Z,100.00
2022-08-19T21:39:00.683Z,100.00
2022-08-19T21:41:06.083Z,100.00
2022-08-19T21:43:10.545Z,100.00
2022-08-19T21:45:17.314Z,100.00
2022-08-19T21:47:21.269Z,99.81
2022-08-19T21:49:24.230Z,100.00
2022-08-19T21:51:27.189Z,100.00
2022-08-19T21:53:31.417Z,100.00
2022-08-19T21:55:37.352Z,100.00
2022-08-19T21:57:41.413Z,100.00
2022-08-19T21:59:45.592Z,100.00
2022-08-19T22:01:54.058Z,98.61
2022-08-19T22:04:01.632Z,98.36
2022-08-19T22:06:04.618Z,99.19
2022-08-19T22:08:07.287Z,99.67
2022-08-19T22:10:11.946Z,99.52
2022-08-19T22:12:23.411Z,100.00
2022-08-19T22:14:26.425Z,100.00
2022-08-19T22:16:30.449Z,100.00
2022-08-19T22:18:34.636Z,100.00
2022-08-19T22:20:37.943Z,100.00
2022-08-19T22:22:47.196Z,100.00
2022-08-19T22:24:49.901Z,100.00
2022-08-19T22:26:52.589Z,100.00
2022-08-19T22:28:55.390Z,100.00
2022-08-19T22:30:59.402Z,100.00
2022-08-19T22:33:07.223Z,100.00
2022-08-19T22:35:10.212Z,100.00
2022-08-19T22:37:13.957Z,100.00
2022-08-19T22:39:16.660Z,100.00
2022-08-19T22:41:19.363Z,100.00
2022-08-19T22:43:25.036Z,100.00
2022-08-19T22:45:29.097Z,100.00
2022-08-19T22:47:32.262Z,98.76
2022-08-19T22:49:38.304Z,99.98
2022-08-19T22:51:59.484Z,99.82
2022-08-19T22:54:02.952Z,99.51
2022-08-19T22:56:09.881Z,100.00
2022-08-19T22:58:15.857Z,99.49
2022-08-19T23:00:30.794Z,98.57
2022-08-19T23:02:38.190Z,98.33
2022-08-19T23:04:42.198Z,99.20
2022-08-19T23:06:44.902Z,98.76
2022-08-19T23:08:47.608Z,98.25
2022-08-19T23:10:50.375Z,99.44
2022-08-19T23:12:54.045Z,98.49
2022-08-19T23:14:58.492Z,97.52
2022-08-19T23:17:01.370Z,98.78
2022-08-19T23:19:04.411Z,97.68
2022-08-19T23:21:09.570Z,97.85
2022-08-19T23:23:14.405Z,98.13
2022-08-19T23:25:21.371Z,98.88
2022-08-19T23:27:41.446Z,97.89
2022-08-19T23:30:01.787Z,97.32
2022-08-19T23:32:07.035Z,98.96
2022-08-19T23:34:10.017Z,99.72
2022-08-19T23:36:16.779Z,99.39
2022-08-19T23:38:22.636Z,99.04
2022-08-19T23:40:25.424Z,100.00
2022-08-19T23:42:28.830Z,100.00
2022-08-19T23:44:31.604Z,100.00
2022-08-19T23:46:50.531Z,100.00
2022-08-19T23:48:59.680Z,100.00
2022-08-19T23:51:04.151Z,100.00
2022-08-19T23:53:09.209Z,100.00
2022-08-19T23:55:16.614Z,100.00
2022-08-19T23:57:19.285Z,100.00
2022-08-19T23:59:22.526Z,100.00
